createdAt,value
2019-01-23T00:00:31.198Z,22.40
2019-01-23T00:01:34.750Z,21.12
2019-01-23T00:02:38.334Z,20.02
2019-01-23T00:03:42.079Z,20.10
2019-01-23T00:04:45.553Z,20.77
2019-01-23T00:05:49.194Z,21.23
2019-01-23T00:06:52.710Z,19.37
2019-01-23T00:07:56.190Z,20.00
2019-01-23T00:08:59.737Z,18.90
2019-01-23T00:10:04.629Z,20.65
2019-01-23T00:11:08.142Z,19.15
2019-01-23T00:12:11.697Z,19.75
2019-01-23T00:13:15.354Z,20.88
2019-01-23T00:14:18.965Z,20.57
2019-01-23T00:15:22.513Z,20.52
2019-01-23T00:16:26.021Z,22.02
2019-01-23T00:17:29.578Z,20.12
2019-01-23T00:18:33.113Z,21.07
2019-01-23T00:19:36.586Z,21.75
2019-01-23T00:20:40.094Z,20.62
2019-01-23T00:21:43.655Z,20.72
2019-01-23T00:22:47.210Z,20.72
2019-01-23T00:23:50.758Z,19.70
2019-01-23T00:24:54.274Z,19.10
2019-01-23T00:25:57.745Z,20.77
2019-01-23T00:27:01.258Z,20.97
2019-01-23T00:28:05.181Z,20.50
2019-01-23T00:29:08.734Z,21.55
2019-01-23T00:30:14.365Z,21.62
2019-01-23T00:31:17.910Z,21.00
2019-01-23T00:32:21.462Z,20.50
2019-01-23T00:33:24.983Z,22.73
2019-01-23T00:34:28.565Z,21.12
2019-01-23T00:35:32.118Z,21.82
2019-01-23T00:36:35.665Z,19.27
2019-01-23T00:37:39.138Z,21.37
2019-01-23T00:38:42.667Z,20.62
2019-01-23T00:39:46.207Z,20.85
2019-01-23T00:40:49.760Z,21.20
2019-01-23T00:41:53.338Z,20.52
2019-01-23T00:42:56.932Z,20.17
2019-01-23T00:44:00.484Z,20.37
2019-01-23T00:45:05.599Z,19.95
2019-01-23T00:46:09.146Z,19.60
2019-01-23T00:47:12.626Z,20.43
2019-01-23T00:48:16.214Z,19.82
2019-01-23T00:49:19.688Z,22.40
2019-01-23T00:50:23.238Z,20.20
2019-01-23T00:51:26.782Z,20.32
2019-01-23T00:52:30.260Z,20.68
2019-01-23T00:53:33.834Z,20.92
2019-01-23T00:54:37.453Z,19.62
2019-01-23T00:55:41.006Z,21.45
2019-01-23T00:56:44.551Z,20.27
2019-01-23T00:57:48.139Z,21.30
2019-01-23T00:58:51.689Z,19.25
2019-01-23T00:59:55.166Z,19.25
2019-01-23T01:00:58.642Z,19.42
2019-01-23T01:02:02.190Z,20.50
2019-01-23T01:03:05.846Z,16.55
2019-01-23T01:04:09.393Z,19.60
2019-01-23T01:05:13.311Z,19.65
2019-01-23T01:06:16.858Z,20.15
2019-01-23T01:07:20.332Z,17.87
2019-01-23T01:08:23.842Z,18.70
2019-01-23T01:09:27.389Z,19.15
2019-01-23T01:10:30.939Z,20.75
2019-01-23T01:11:34.493Z,20.15
2019-01-23T01:12:38.081Z,18.45
2019-01-23T01:13:41.630Z,15.05
2019-01-23T01:14:45.101Z,17.10
2019-01-23T01:15:48.610Z,19.30
2019-01-23T01:16:52.082Z,16.20
2019-01-23T01:17:55.639Z,20.00
2019-01-23T01:18:59.186Z,20.43
2019-01-23T01:20:03.105Z,18.00
2019-01-23T01:21:06.688Z,19.23
2019-01-23T01:22:10.238Z,15.85
2019-01-23T01:23:13.823Z,19.15
2019-01-23T01:24:17.373Z,20.02
2019-01-23T01:25:20.846Z,19.55
2019-01-23T01:26:24.394Z,20.95
2019-01-23T01:27:27.869Z,18.48
2019-01-23T01:28:31.382Z,18.10
2019-01-23T01:29:34.935Z,19.52
2019-01-23T01:30:38.483Z,18.23
2019-01-23T01:31:42.030Z,16.20
2019-01-23T01:32:45.510Z,18.70
2019-01-23T01:33:49.102Z,19.65
2019-01-23T01:34:52.647Z,18.45
2019-01-23T01:35:56.202Z,21.57
2019-01-23T01:36:59.716Z,18.62
2019-01-23T01:38:03.257Z,20.43
2019-01-23T01:39:08.354Z,19.00
2019-01-23T01:40:14.439Z,20.40
2019-01-23T01:41:17.981Z,20.15
2019-01-23T01:42:21.561Z,19.45
2019-01-23T01:43:25.031Z,17.17
2019-01-23T01:44:28.581Z,19.92
2019-01-23T01:45:32.126Z,19.60
2019-01-23T01:46:35.599Z,20.12
2019-01-23T01:47:39.110Z,19.07
2019-01-23T01:48:42.611Z,17.75
2019-01-23T01:49:46.162Z,19.75
2019-01-23T01:50:49.634Z,19.12
2019-01-23T01:51:53.978Z,20.43
2019-01-23T01:52:57.562Z,20.50
2019-01-23T01:54:01.117Z,19.23
2019-01-23T01:55:06.701Z,18.95
2019-01-23T01:56:10.180Z,20.27
2019-01-23T01:57:13.721Z,19.87
2019-01-23T01:58:17.306Z,18.67
2019-01-23T01:59:20.858Z,18.32
2019-01-23T02:00:24.738Z,19.62
2019-01-23T02:01:28.279Z,18.70
2019-01-23T02:02:31.826Z,18.50
2019-01-23T02:03:35.373Z,18.32
2019-01-23T02:04:38.896Z,14.75
2019-01-23T02:05:42.442Z,19.32
2019-01-23T02:06:45.988Z,21.02
2019-01-23T02:07:49.704Z,19.42
2019-01-23T02:08:53.255Z,18.90
2019-01-23T02:09:56.833Z,18.40
2019-01-23T02:11:00.385Z,18.75
2019-01-23T02:12:04.370Z,15.90
2019-01-23T02:13:07.910Z,17.73
2019-01-23T02:14:11.381Z,18.07
2019-01-23T02:15:16.235Z,17.57
2019-01-23T02:16:19.782Z,18.05
2019-01-23T02:17:23.330Z,18.92
2019-01-23T02:18:26.802Z,18.60
2019-01-23T02:19:30.319Z,18.52
2019-01-23T02:20:33.928Z,17.37
2019-01-23T02:21:37.542Z,18.62
2019-01-23T02:22:41.084Z,19.57
2019-01-23T02:23:44.666Z,15.30
2019-01-23T02:24:48.148Z,16.15
2019-01-23T02:25:51.735Z,20.05
2019-01-23T02:26:55.279Z,16.97
2019-01-23T02:27:58.826Z,17.12
2019-01-23T02:29:02.375Z,17.32
2019-01-23T02:30:11.863Z,18.20
2019-01-23T02:31:15.451Z,19.15
2019-01-23T02:32:18.994Z,17.00
2019-01-23T02:33:22.467Z,18.82
2019-01-23T02:34:26.022Z,15.78
2019-01-23T02:35:29.618Z,17.77
2019-01-23T02:36:33.314Z,18.92
2019-01-23T02:37:36.854Z,17.02
2019-01-23T02:38:40.409Z,15.78
2019-01-23T02:39:43.947Z,17.25
2019-01-23T02:40:47.527Z,17.00
2019-01-23T02:41:51.071Z,17.90
2019-01-23T02:42:54.622Z,17.75
2019-01-23T02:43:58.123Z,18.15
2019-01-23T02:45:01.687Z,18.27
2019-01-23T02:46:05.328Z,17.52
2019-01-23T02:47:08.878Z,18.05
2019-01-23T02:48:12.345Z,17.07
2019-01-23T02:49:15.862Z,15.68
2019-01-23T02:50:19.407Z,17.98
2019-01-23T02:51:22.879Z,18.20
2019-01-23T02:52:26.431Z,19.48
2019-01-23T02:53:29.983Z,19.05
2019-01-23T02:54:33.573Z,18.30
2019-01-23T02:55:37.122Z,17.82
2019-01-23T02:56:40.671Z,18.52
2019-01-23T02:57:44.213Z,13.55
2019-01-23T02:58:47.691Z,11.68
2019-01-23T02:59:51.275Z,16.87
2019-01-23T03:00:54.823Z,14.87
2019-01-23T03:01:58.376Z,16.00
2019-01-23T03:03:01.946Z,17.02
2019-01-23T03:04:05.611Z,15.60
2019-01-23T03:05:12.302Z,18.20
2019-01-23T03:06:15.878Z,18.95
2019-01-23T03:07:19.356Z,17.40
2019-01-23T03:08:22.910Z,16.07
2019-01-23T03:09:26.456Z,16.55
2019-01-23T03:10:30.051Z,15.83
2019-01-23T03:11:33.598Z,18.67
2019-01-23T03:12:37.139Z,17.82
2019-01-23T03:13:40.754Z,17.40
2019-01-23T03:14:44.227Z,17.92
2019-01-23T03:15:47.810Z,17.60
2019-01-23T03:16:51.353Z,17.73
2019-01-23T03:17:54.904Z,18.25
2019-01-23T03:18:58.442Z,18.05
2019-01-23T03:20:01.917Z,17.02
2019-01-23T03:21:05.574Z,16.40
2019-01-23T03:22:09.124Z,17.42
2019-01-23T03:23:12.677Z,14.10
2019-01-23T03:24:16.222Z,16.23
2019-01-23T03:25:19.838Z,18.40
2019-01-23T03:26:23.421Z,15.70
2019-01-23T03:27:26.972Z,18.55
2019-01-23T03:28:30.546Z,18.30
2019-01-23T03:29:34.026Z,19.27
2019-01-23T03:30:37.579Z,17.30
2019-01-23T03:31:41.138Z,17.90
2019-01-23T03:32:44.749Z,18.27
2019-01-23T03:33:48.317Z,17.20
2019-01-23T03:34:51.870Z,17.85
2019-01-23T03:35:55.417Z,18.37
2019-01-23T03:36:58.961Z,16.93
2019-01-23T03:38:02.434Z,18.17
2019-01-23T03:39:07.186Z,17.98
2019-01-23T03:40:16.551Z,16.77
2019-01-23T03:41:20.094Z,18.25
2019-01-23T03:42:23.573Z,17.80
2019-01-23T03:43:27.186Z,17.17
2019-01-23T03:44:30.694Z,13.55
2019-01-23T03:45:34.234Z,16.42
2019-01-23T03:46:37.784Z,16.85
2019-01-23T03:47:41.334Z,16.50
2019-01-23T03:48:44.880Z,15.75
2019-01-23T03:49:48.468Z,16.50
2019-01-23T03:50:52.005Z,16.15
2019-01-23T03:51:55.486Z,15.68
2019-01-23T03:52:59.035Z,18.15
2019-01-23T03:54:02.622Z,16.67
2019-01-23T03:55:08.334Z,18.77
2019-01-23T03:56:11.805Z,17.02
2019-01-23T03:57:15.278Z,18.95
2019-01-23T03:58:18.865Z,18.48
2019-01-23T03:59:22.337Z,16.05
2019-01-23T04:00:25.837Z,17.52
2019-01-23T04:01:29.454Z,18.70
2019-01-23T04:02:33.004Z,17.07
2019-01-23T04:03:36.556Z,18.07
2019-01-23T04:04:40.138Z,16.52
2019-01-23T04:05:43.715Z,17.50
2019-01-23T04:06:47.267Z,18.00
2019-01-23T04:07:50.889Z,18.48
2019-01-23T04:08:54.434Z,15.40
2019-01-23T04:09:57.986Z,16.95
2019-01-23T04:11:01.498Z,16.80
2019-01-23T04:12:05.103Z,16.05
2019-01-23T04:13:08.642Z,16.00
2019-01-23T04:14:12.181Z,16.20
2019-01-23T04:15:17.074Z,15.68
2019-01-23T04:16:20.654Z,16.75
2019-01-23T04:17:24.238Z,15.48
2019-01-23T04:18:27.794Z,15.35
2019-01-23T04:19:31.342Z,17.50
2019-01-23T04:20:34.826Z,17.17
2019-01-23T04:21:38.371Z,17.07
2019-01-23T04:22:41.957Z,16.50
2019-01-23T04:23:45.440Z,17.23
2019-01-23T04:24:48.982Z,16.05
2019-01-23T04:25:52.538Z,14.75
2019-01-23T04:26:56.090Z,18.27
2019-01-23T04:27:59.674Z,18.07
2019-01-23T04:29:03.227Z,17.77
2019-01-23T04:30:13.141Z,18.50
2019-01-23T04:31:16.686Z,14.40
2019-01-23T04:32:20.279Z,18.02
2019-01-23T04:33:23.842Z,15.18
2019-01-23T04:34:27.387Z,17.12
2019-01-23T04:35:30.943Z,15.72
2019-01-23T04:36:34.506Z,16.73
2019-01-23T04:37:38.083Z,16.10
2019-01-23T04:38:41.640Z,16.42
2019-01-23T04:39:45.223Z,14.98
2019-01-23T04:40:48.776Z,17.57
2019-01-23T04:41:52.326Z,17.23
2019-01-23T04:42:55.868Z,16.65
2019-01-23T04:43:59.342Z,15.80
2019-01-23T04:45:02.940Z,16.15
2019-01-23T04:46:06.487Z,17.17
2019-01-23T04:47:10.035Z,16.00
2019-01-23T04:48:13.626Z,17.98
2019-01-23T04:49:17.171Z,15.48
2019-01-23T04:50:20.786Z,19.12
2019-01-23T04:51:31.878Z,18.00
2019-01-23T04:52:37.066Z,17.87
2019-01-23T04:53:42.226Z,18.00
2019-01-23T04:54:45.774Z,17.55
2019-01-23T04:55:49.322Z,17.77
2019-01-23T04:56:52.891Z,18.02
2019-01-23T04:57:56.438Z,18.30
2019-01-23T04:59:00.007Z,16.35
2019-01-23T05:00:06.322Z,16.65
2019-01-23T05:01:09.859Z,17.02
2019-01-23T05:02:13.446Z,15.05
2019-01-23T05:03:16.918Z,16.42
2019-01-23T05:04:20.574Z,15.93
2019-01-23T05:05:24.234Z,16.07
2019-01-23T05:06:27.773Z,16.42
2019-01-23T05:07:31.263Z,17.27
2019-01-23T05:08:34.806Z,17.52
2019-01-23T05:09:38.357Z,16.40
2019-01-23T05:10:41.893Z,17.82
2019-01-23T05:11:45.436Z,19.62
2019-01-23T05:12:49.018Z,17.05
2019-01-23T05:13:52.493Z,17.80
2019-01-23T05:14:56.023Z,17.02
2019-01-23T05:15:59.572Z,16.48
2019-01-23T05:17:03.126Z,17.55
2019-01-23T05:18:06.598Z,16.52
2019-01-23T05:19:10.072Z,14.47
2019-01-23T05:20:15.397Z,16.87
2019-01-23T05:21:18.875Z,16.30
2019-01-23T05:22:22.417Z,14.85
2019-01-23T05:23:25.890Z,17.42
2019-01-23T05:24:29.368Z,17.98
2019-01-23T05:25:32.949Z,16.73
2019-01-23T05:26:36.426Z,16.55
2019-01-23T05:27:40.079Z,17.40
2019-01-23T05:28:43.626Z,16.48
2019-01-23T05:29:54.665Z,18.27
2019-01-23T05:30:52.410Z,18.23
2019-01-23T05:31:55.962Z,18.27
2019-01-23T05:32:59.498Z,17.25
2019-01-23T05:34:03.062Z,19.07
2019-01-23T05:35:06.878Z,18.52
2019-01-23T05:36:10.538Z,18.02
2019-01-23T05:37:14.050Z,17.20
2019-01-23T05:38:17.535Z,15.80
2019-01-23T05:39:21.115Z,18.70
2019-01-23T05:40:24.702Z,17.37
2019-01-23T05:41:28.177Z,16.93
2019-01-23T05:42:31.726Z,17.20
2019-01-23T05:43:35.204Z,16.45
2019-01-23T05:44:38.782Z,19.00
2019-01-23T05:45:42.255Z,16.50
2019-01-23T05:46:45.726Z,18.00
2019-01-23T05:47:49.302Z,12.47
2019-01-23T05:48:52.846Z,16.23
2019-01-23T05:49:56.416Z,15.95
2019-01-23T05:50:59.994Z,17.40
2019-01-23T05:52:03.610Z,17.37
2019-01-23T05:53:07.162Z,16.90
2019-01-23T05:54:10.714Z,17.67
2019-01-23T05:55:14.265Z,17.40
2019-01-23T05:56:17.850Z,17.52
2019-01-23T05:57:21.394Z,17.75
2019-01-23T05:58:24.986Z,14.85
2019-01-23T05:59:28.562Z,17.48
2019-01-23T06:00:32.035Z,15.05
2019-01-23T06:01:35.592Z,15.48
2019-01-23T06:02:39.129Z,15.20
2019-01-23T06:03:42.605Z,16.40
2019-01-23T06:04:46.197Z,15.60
2019-01-23T06:05:49.829Z,15.25
2019-01-23T06:06:53.374Z,15.40
2019-01-23T06:07:56.926Z,15.88
2019-01-23T06:09:00.447Z,13.03
2019-01-23T06:10:06.529Z,15.45
2019-01-23T06:11:10.010Z,12.43
2019-01-23T06:12:13.563Z,15.70
2019-01-23T06:13:17.109Z,16.95
2019-01-23T06:14:20.619Z,9.13
2019-01-23T06:15:24.167Z,16.73
2019-01-23T06:16:27.639Z,16.20
2019-01-23T06:17:31.119Z,15.95
2019-01-23T06:18:34.665Z,18.77
2019-01-23T06:19:38.175Z,14.70
2019-01-23T06:20:41.726Z,24.77
2019-01-23T06:21:45.242Z,20.25
2019-01-23T06:22:48.787Z,20.20
2019-01-23T06:23:52.263Z,17.65
2019-01-23T06:24:55.807Z,20.82
2019-01-23T06:25:59.363Z,19.30
2019-01-23T06:27:02.941Z,20.30
2019-01-23T06:28:06.418Z,17.02
2019-01-23T06:29:09.890Z,17.10
2019-01-23T06:30:22.097Z,16.73
2019-01-23T06:31:25.605Z,17.48
2019-01-23T06:32:29.164Z,17.00
2019-01-23T06:33:32.743Z,17.48
2019-01-23T06:34:36.298Z,16.20
2019-01-23T06:35:39.858Z,17.92
2019-01-23T06:36:43.403Z,17.02
2019-01-23T06:37:46.985Z,17.73
2019-01-23T06:38:50.533Z,18.23
2019-01-23T06:39:54.085Z,18.12
2019-01-23T06:40:58.138Z,18.95
2019-01-23T06:42:01.686Z,18.02
2019-01-23T06:43:05.229Z,18.32
2019-01-23T06:44:08.749Z,13.05
2019-01-23T06:45:17.271Z,18.17
2019-01-23T06:46:20.814Z,16.48
2019-01-23T06:47:24.290Z,17.05
2019-01-23T06:48:27.766Z,16.95
2019-01-23T06:49:31.274Z,16.20
2019-01-23T06:50:34.745Z,16.82
2019-01-23T06:51:38.333Z,16.25
2019-01-23T06:52:41.874Z,17.80
2019-01-23T06:53:45.346Z,18.00
2019-01-23T06:54:48.893Z,18.17
2019-01-23T06:55:52.473Z,19.07
2019-01-23T06:56:55.945Z,21.85
2019-01-23T06:57:59.423Z,19.75
2019-01-23T06:59:02.973Z,17.98
2019-01-23T07:00:17.260Z,17.62
2019-01-23T07:01:20.366Z,15.65
2019-01-23T07:02:24.003Z,16.17
2019-01-23T07:03:27.542Z,17.10
2019-01-23T07:04:31.043Z,18.25
2019-01-23T07:05:34.654Z,15.90
2019-01-23T07:06:38.235Z,16.85
2019-01-23T07:07:41.784Z,16.93
2019-01-23T07:08:45.386Z,18.17
2019-01-23T07:09:49.194Z,16.02
2019-01-23T07:10:52.742Z,18.20
2019-01-23T07:11:56.214Z,16.75
2019-01-23T07:12:59.799Z,15.65
2019-01-23T07:14:03.380Z,15.60
2019-01-23T07:15:09.841Z,16.48
2019-01-23T07:16:13.351Z,17.15
2019-01-23T07:17:16.826Z,16.90
2019-01-23T07:18:20.310Z,16.30
2019-01-23T07:19:23.889Z,14.53
2019-01-23T07:20:27.431Z,16.95
2019-01-23T07:21:30.977Z,17.15
2019-01-23T07:22:34.522Z,16.30
2019-01-23T07:23:38.026Z,18.95
2019-01-23T07:24:41.498Z,18.82
2019-01-23T07:25:45.054Z,17.87
2019-01-23T07:26:48.626Z,18.00
2019-01-23T07:27:52.101Z,17.32
2019-01-23T07:28:55.579Z,15.13
2019-01-23T07:29:59.165Z,17.23
2019-01-23T07:31:02.709Z,15.83
2019-01-23T07:32:06.353Z,16.80
2019-01-23T07:33:09.823Z,15.28
2019-01-23T07:34:13.371Z,18.15
2019-01-23T07:35:16.947Z,17.52
2019-01-23T07:36:20.494Z,15.40
2019-01-23T07:37:24.009Z,15.30
2019-01-23T07:38:27.596Z,17.80
2019-01-23T07:39:31.145Z,17.12
2019-01-23T07:40:34.618Z,18.45
2019-01-23T07:41:38.093Z,19.98
2019-01-23T07:42:41.715Z,17.65
2019-01-23T07:43:45.299Z,19.00
2019-01-23T07:44:48.842Z,18.37
2019-01-23T07:45:52.398Z,18.50
2019-01-23T07:46:55.946Z,17.62
2019-01-23T07:47:59.526Z,17.82
2019-01-23T07:49:02.998Z,17.52
2019-01-23T07:50:09.577Z,17.27
2019-01-23T07:51:13.053Z,17.00
2019-01-23T07:52:16.638Z,16.42
2019-01-23T07:53:20.114Z,16.27
2019-01-23T07:54:23.666Z,16.93
2019-01-23T07:55:27.282Z,16.90
2019-01-23T07:56:30.753Z,17.07
2019-01-23T07:57:34.269Z,17.07
2019-01-23T07:58:37.814Z,16.93
2019-01-23T07:59:41.358Z,18.65
2019-01-23T08:00:44.907Z,17.95
2019-01-23T08:01:48.450Z,17.77
2019-01-23T08:02:52.306Z,16.90
2019-01-23T08:03:55.889Z,17.00
2019-01-23T08:04:59.430Z,18.48
2019-01-23T08:06:02.980Z,17.02
2019-01-23T08:07:06.561Z,15.60
2019-01-23T08:08:10.039Z,16.45
2019-01-23T08:09:13.553Z,16.97
2019-01-23T08:10:18.842Z,16.23
2019-01-23T08:11:22.389Z,17.80
2019-01-23T08:12:25.935Z,14.95
2019-01-23T08:13:29.407Z,15.90
2019-01-23T08:14:32.982Z,16.35
2019-01-23T08:15:36.530Z,16.67
2019-01-23T08:16:40.078Z,16.48
2019-01-23T08:17:43.570Z,15.85
2019-01-23T08:18:47.143Z,17.42
2019-01-23T08:19:50.694Z,16.20
2019-01-23T08:20:54.222Z,17.62
2019-01-23T08:21:57.778Z,15.65
2019-01-23T08:23:01.342Z,17.75
2019-01-23T08:24:04.885Z,16.90
2019-01-23T08:25:08.362Z,17.85
2019-01-23T08:26:11.937Z,17.23
2019-01-23T08:27:15.487Z,17.65
2019-01-23T08:28:19.038Z,17.50
2019-01-23T08:29:22.583Z,15.55
2019-01-23T08:30:26.313Z,16.30
2019-01-23T08:31:29.791Z,17.37
2019-01-23T08:32:33.337Z,18.30
2019-01-23T08:33:36.814Z,16.45
2019-01-23T08:34:40.362Z,16.85
2019-01-23T08:35:43.945Z,17.80
2019-01-23T08:36:47.494Z,18.00
2019-01-23T08:37:51.229Z,17.25
2019-01-23T08:38:54.766Z,17.10
2019-01-23T08:39:58.309Z,17.07
2019-01-23T08:41:01.781Z,16.52
2019-01-23T08:42:05.255Z,16.85
2019-01-23T08:43:08.738Z,17.57
2019-01-23T08:44:12.414Z,16.65
2019-01-23T08:45:16.091Z,17.48
2019-01-23T08:46:19.639Z,16.90
2019-01-23T08:47:23.190Z,17.07
2019-01-23T08:48:26.658Z,16.73
2019-01-23T08:49:30.181Z,16.85
2019-01-23T08:50:39.167Z,15.32
2019-01-23T08:51:42.701Z,16.62
2019-01-23T08:52:46.246Z,16.35
2019-01-23T08:53:49.798Z,17.45
2019-01-23T08:54:53.348Z,15.90
2019-01-23T08:55:56.931Z,16.27
2019-01-23T08:57:00.483Z,16.57
2019-01-23T08:58:04.702Z,16.82
2019-01-23T08:59:08.250Z,16.65
2019-01-23T09:00:16.848Z,16.35
2019-01-23T09:01:20.393Z,16.48
2019-01-23T09:02:23.970Z,16.05
2019-01-23T09:03:27.518Z,16.50
2019-01-23T09:04:31.065Z,15.93
2019-01-23T09:05:34.606Z,15.80
2019-01-23T09:06:38.120Z,16.87
2019-01-23T09:07:41.803Z,16.10
2019-01-23T09:08:45.350Z,17.50
2019-01-23T09:09:48.897Z,16.00
2019-01-23T09:10:52.478Z,15.78
2019-01-23T09:11:56.030Z,16.35
2019-01-23T09:12:59.501Z,16.25
2019-01-23T09:14:03.052Z,16.23
2019-01-23T09:15:09.706Z,14.98
2019-01-23T09:16:13.255Z,16.25
2019-01-23T09:17:16.811Z,16.25
2019-01-23T09:18:20.393Z,15.53
2019-01-23T09:19:23.942Z,15.25
2019-01-23T09:20:27.498Z,15.35
2019-01-23T09:21:31.042Z,16.30
2019-01-23T09:22:34.514Z,15.00
2019-01-23T09:23:38.022Z,15.32
2019-01-23T09:24:41.505Z,16.73
2019-01-23T09:25:49.685Z,16.05
2019-01-23T09:26:50.288Z,16.50
2019-01-23T09:27:53.971Z,15.23
2019-01-23T09:28:57.518Z,15.23
2019-01-23T09:30:01.000Z,13.78
2019-01-23T09:31:13.383Z,15.13
2019-01-23T09:32:22.866Z,14.23
2019-01-23T09:33:29.425Z,14.65
2019-01-23T09:34:41.909Z,15.93
2019-01-23T09:35:51.031Z,15.30
2019-01-23T09:37:00.510Z,15.55
2019-01-23T09:38:15.750Z,16.25
2019-01-23T09:39:38.878Z,16.75
2019-01-23T09:40:45.426Z,16.50
2019-01-23T09:42:10.232Z,14.60
2019-01-23T09:43:19.479Z,14.80
2019-01-23T09:44:32.006Z,15.25
2019-01-23T09:45:50.684Z,14.43
2019-01-23T09:47:03.094Z,14.03
2019-01-23T09:48:30.363Z,14.65
2019-01-23T09:49:45.606Z,16.37
2019-01-23T09:50:54.921Z,14.28
2019-01-23T09:52:12.746Z,15.03
2019-01-23T09:53:22.138Z,15.05
2019-01-23T09:54:26.032Z,16.45
2019-01-23T09:55:29.580Z,15.35
2019-01-23T09:56:33.121Z,16.45
2019-01-23T09:57:36.950Z,15.90
2019-01-23T09:58:40.498Z,16.55
2019-01-23T09:59:43.998Z,15.93
2019-01-23T10:00:47.579Z,16.10
2019-01-23T10:01:51.128Z,16.02
2019-01-23T10:02:54.750Z,15.93
2019-01-23T10:03:58.294Z,15.48
2019-01-23T10:05:01.774Z,15.30
2019-01-23T10:06:05.427Z,15.70
2019-01-23T10:07:08.974Z,14.55
2019-01-23T10:08:12.526Z,17.10
2019-01-23T10:09:16.069Z,13.65
2019-01-23T10:10:21.307Z,15.75
2019-01-23T10:11:24.963Z,16.15
2019-01-23T10:12:28.522Z,15.55
2019-01-23T10:13:32.067Z,13.08
2019-01-23T10:14:35.541Z,14.68
2019-01-23T10:15:42.582Z,15.45
2019-01-23T10:16:46.055Z,15.75
2019-01-23T10:17:49.607Z,15.55
2019-01-23T10:18:56.192Z,13.53
2019-01-23T10:19:58.341Z,14.00
2019-01-23T10:21:01.854Z,15.35
2019-01-23T10:22:05.539Z,14.53
2019-01-23T10:23:09.153Z,14.53
2019-01-23T10:24:12.626Z,13.88
2019-01-23T10:25:16.891Z,13.83
2019-01-23T10:26:20.588Z,13.53
2019-01-23T10:27:24.134Z,12.63
2019-01-23T10:28:27.616Z,15.03
2019-01-23T10:29:31.166Z,13.90
2019-01-23T10:30:34.746Z,13.90
2019-01-23T10:31:38.294Z,14.68
2019-01-23T10:32:41.766Z,12.55
2019-01-23T10:33:45.238Z,15.23
2019-01-23T10:34:48.716Z,13.38
2019-01-23T10:35:52.297Z,12.65
2019-01-23T10:36:55.839Z,15.83
2019-01-23T10:37:59.378Z,11.60
2019-01-23T10:39:02.954Z,13.60
2019-01-23T10:40:09.584Z,14.68
2019-01-23T10:41:13.182Z,15.10
2019-01-23T10:42:16.658Z,16.10
2019-01-23T10:43:20.131Z,14.78
2019-01-23T10:44:23.679Z,12.82
2019-01-23T10:45:27.230Z,14.93
2019-01-23T10:46:30.887Z,14.65
2019-01-23T10:47:34.497Z,15.30
2019-01-23T10:48:38.251Z,15.60
2019-01-23T10:49:41.773Z,17.95
2019-01-23T10:50:45.242Z,14.80
2019-01-23T10:51:48.724Z,15.15
2019-01-23T10:52:52.341Z,18.20
2019-01-23T10:53:55.927Z,16.02
2019-01-23T10:54:59.479Z,16.48
2019-01-23T10:56:03.030Z,15.35
2019-01-23T10:57:06.714Z,15.00
2019-01-23T10:58:10.294Z,15.72
2019-01-23T10:59:13.870Z,16.65
2019-01-23T11:00:22.225Z,15.15
2019-01-23T11:01:25.703Z,15.83
2019-01-23T11:02:29.986Z,14.40
2019-01-23T11:03:33.566Z,16.20
2019-01-23T11:04:37.115Z,16.15
2019-01-23T11:05:40.668Z,14.80
2019-01-23T11:06:44.251Z,14.55
2019-01-23T11:07:47.802Z,14.13
2019-01-23T11:08:51.281Z,15.00
2019-01-23T11:09:54.754Z,17.57
2019-01-23T11:10:58.263Z,16.45
2019-01-23T11:12:01.822Z,15.60
2019-01-23T11:13:05.435Z,16.30
2019-01-23T11:14:08.982Z,16.32
2019-01-23T11:15:13.171Z,16.65
2019-01-23T11:16:16.762Z,15.93
2019-01-23T11:17:20.378Z,15.65
2019-01-23T11:18:24.043Z,16.73
2019-01-23T11:19:27.663Z,28.67
2019-01-23T11:20:31.218Z,25.65
2019-01-23T11:21:34.759Z,26.57
2019-01-23T11:22:38.306Z,17.12
2019-01-23T11:23:41.811Z,15.72
2019-01-23T11:24:45.359Z,17.82
2019-01-23T11:25:48.933Z,18.35
2019-01-23T11:26:52.509Z,16.17
2019-01-23T11:27:55.985Z,15.60
2019-01-23T11:28:59.561Z,16.20
2019-01-23T11:30:03.270Z,16.75
2019-01-23T11:31:06.742Z,16.25
2019-01-23T11:32:10.298Z,14.55
2019-01-23T11:33:13.850Z,15.32
2019-01-23T11:34:17.379Z,16.60
2019-01-23T11:35:20.937Z,15.63
2019-01-23T11:36:24.482Z,16.20
2019-01-23T11:37:28.026Z,15.95
2019-01-23T11:38:31.579Z,14.85
2019-01-23T11:39:35.167Z,15.43
2019-01-23T11:40:38.649Z,16.20
2019-01-23T11:41:42.254Z,16.50
2019-01-23T11:42:45.803Z,17.20
2019-01-23T11:43:49.378Z,16.10
2019-01-23T11:44:52.930Z,16.62
2019-01-23T11:45:56.445Z,17.15
2019-01-23T11:46:59.990Z,17.23
2019-01-23T11:48:03.463Z,16.80
2019-01-23T11:49:07.014Z,16.67
2019-01-23T11:50:13.665Z,16.12
2019-01-23T11:51:17.138Z,16.67
2019-01-23T11:52:20.691Z,18.27
2019-01-23T11:53:24.233Z,18.85
2019-01-23T11:54:27.819Z,18.15
2019-01-23T11:55:31.369Z,19.27
2019-01-23T11:56:34.921Z,18.30
2019-01-23T11:57:38.511Z,17.75
2019-01-23T11:58:42.607Z,20.23
2019-01-23T11:59:46.598Z,19.35
2019-01-23T12:00:50.613Z,20.52
2019-01-23T12:01:56.086Z,20.40
2019-01-23T12:03:00.303Z,21.35
2019-01-23T12:04:04.454Z,21.17
2019-01-23T12:05:11.400Z,20.65
2019-01-23T12:06:15.579Z,21.73
2019-01-23T12:07:19.630Z,20.57
2019-01-23T12:08:23.658Z,21.25
2019-01-23T12:09:27.593Z,18.85
2019-01-23T12:10:31.718Z,19.90
2019-01-23T12:11:35.666Z,19.98
2019-01-23T12:12:39.789Z,19.05
2019-01-23T12:13:43.925Z,20.25
2019-01-23T12:14:47.940Z,20.12
2019-01-23T12:15:52.014Z,19.77
2019-01-23T12:16:56.037Z,17.70
2019-01-23T12:18:00.080Z,19.07
2019-01-23T12:19:04.140Z,19.77
2019-01-23T12:20:10.277Z,19.05
2019-01-23T12:21:14.278Z,18.80
2019-01-23T12:22:18.496Z,18.12
2019-01-23T12:23:22.628Z,18.67
2019-01-23T12:24:26.779Z,19.50
2019-01-23T12:25:31.007Z,17.60
2019-01-23T12:26:35.086Z,17.98
2019-01-23T12:27:39.210Z,19.37
2019-01-23T12:28:43.211Z,19.42
2019-01-23T12:29:47.405Z,19.50
2019-01-23T12:30:51.518Z,19.00
2019-01-23T12:31:55.558Z,19.30
2019-01-23T12:32:59.661Z,19.57
2019-01-23T12:34:03.664Z,18.20
2019-01-23T12:35:09.462Z,19.32
2019-01-23T12:36:13.564Z,18.35
2019-01-23T12:37:17.652Z,19.48
2019-01-23T12:38:21.653Z,19.77
2019-01-23T12:39:25.730Z,21.85
2019-01-23T12:40:29.766Z,19.77
2019-01-23T12:41:33.869Z,19.02
2019-01-23T12:42:37.754Z,17.55
2019-01-23T12:43:41.807Z,19.17
2019-01-23T12:44:45.855Z,19.52
2019-01-23T12:45:49.856Z,19.02
2019-01-23T12:46:53.976Z,20.45
2019-01-23T12:47:57.987Z,20.17
2019-01-23T12:49:02.173Z,22.42
2019-01-23T12:50:09.443Z,19.07
2019-01-23T12:51:13.541Z,19.80
2019-01-23T12:52:17.584Z,18.52
2019-01-23T12:53:21.655Z,20.97
2019-01-23T12:54:25.695Z,19.32
2019-01-23T12:55:29.757Z,18.98
2019-01-23T12:56:34.449Z,19.95
2019-01-23T12:57:38.475Z,19.65
2019-01-23T12:58:42.521Z,19.07
2019-01-23T12:59:46.472Z,19.27
2019-01-23T13:00:50.578Z,19.20
2019-01-23T13:01:54.615Z,19.40
2019-01-23T13:02:58.779Z,19.70
2019-01-23T13:04:02.810Z,20.08
2019-01-23T13:05:09.878Z,19.82
2019-01-23T13:06:13.914Z,18.80
2019-01-23T13:07:17.890Z,18.57
2019-01-23T13:08:22.027Z,20.02
2019-01-23T13:09:26.156Z,19.60
2019-01-23T13:10:30.251Z,20.52
2019-01-23T13:11:34.260Z,19.45
2019-01-23T13:12:38.154Z,20.08
2019-01-23T13:13:42.057Z,20.27
2019-01-23T13:14:46.050Z,19.45
2019-01-23T13:15:50.116Z,20.27
2019-01-23T13:16:54.348Z,19.02
2019-01-23T13:17:58.769Z,19.52
2019-01-23T13:19:02.799Z,19.40
2019-01-23T13:20:09.663Z,20.05
2019-01-23T13:21:13.737Z,20.40
2019-01-23T13:22:17.944Z,20.12
2019-01-23T13:23:22.047Z,20.35
2019-01-23T13:24:26.107Z,20.23
2019-01-23T13:25:30.553Z,22.22
2019-01-23T13:26:34.757Z,20.70
2019-01-23T13:27:38.234Z,20.55
2019-01-23T13:28:42.505Z,23.05
2019-01-23T13:29:46.336Z,18.98
2019-01-23T13:30:50.352Z,20.95
2019-01-23T13:31:54.338Z,20.95
2019-01-23T13:32:58.376Z,21.82
2019-01-23T13:34:02.345Z,21.12
2019-01-23T13:35:09.421Z,21.48
2019-01-23T13:36:13.418Z,20.35
2019-01-23T13:37:17.346Z,21.57
2019-01-23T13:38:21.525Z,20.80
2019-01-23T13:39:25.521Z,20.45
2019-01-23T13:40:34.505Z,21.85
2019-01-23T13:41:38.525Z,22.10
2019-01-23T13:42:42.537Z,21.23
2019-01-23T13:43:46.639Z,21.25
2019-01-23T13:44:50.118Z,21.25